Flight Track Log - Related Links

Times and Time Zones

All times are in EDT time to prevent confusion due to time zone crossing. See the N400DE flight status page for this flight to view local times or setup timezone preferences in your user account.

Time Position Orientation Groundspeed Altitude Reporting Facility
EDT Latitude Longitude Course Direction KTS MPH feet Rate Location/Type
Wed 09:44:17 AM 42.9506 -85.5458 346° North 25,000  Level Chicago Center
Wed 09:45:17 AM 42.9864 -85.5578 353° North 122 140 3,800 -10,450 Descending Chicago Center
Wed 09:46:17 AM 43.0242 -85.5639 346° North 122 140 4,100 250 Climbing Chicago Center
Wed 09:47:17 AM 43.0661 -85.5783 359° North 141 162 4,300 600 Climbing Chicago Center
Wed 09:48:17 AM 43.1017 -85.5792 North 141 162 5,300 1,000 Climbing Chicago Center
Wed 09:49:17 AM 43.1350 -85.5772 359° North 131 151 6,300 1,050 Climbing Chicago Center
Wed 09:50:17 AM 43.1642 -85.5781 North 117 135 7,400 1,050 Climbing Chicago Center
Wed 09:51:17 AM 43.1914 -85.5767 359° North 105 121 8,400 1,000 Climbing Chicago Center
Wed 09:52:17 AM 43.2225 -85.5775 North 105 121 9,400 1,050 Climbing Chicago Center
Wed 09:53:17 AM 43.2497 -85.5758 358° North 105 121 10,500 1,050 Climbing Chicago Center
Wed 09:54:17 AM 43.2789 -85.5769 358° North 105 121 11,500 950 Climbing Chicago Center
Wed 09:55:17 AM 43.3039 -85.5783 North 105 121 12,400 1,027 Climbing Chicago Center
Wed 09:56:08 AM 43.3303 -85.5753 360° North 99 114 13,400 911 Climbing Minneapolis Center
Wed 09:57:09 AM 43.3511 -85.5753 358° North 99 114 14,100 900 Climbing Minneapolis Center
Wed 09:58:08 AM 43.3825 -85.5769 North 99 114 15,200 908 Climbing Minneapolis Center
Wed 09:59:08 AM 43.4053 -85.5739 North 99 114 15,900 800 Climbing Minneapolis Center
Wed 10:00:08 AM 43.4303 -85.5733 360° North 94 108 16,800 900 Climbing Minneapolis Center
Wed 10:01:08 AM 43.4533 -85.5731 360° North 84 97 17,700 750 Climbing Minneapolis Center
Wed 10:02:08 AM 43.4783 -85.5728 North 84 97 18,300 700 Climbing Minneapolis Center
Wed 10:03:08 AM 43.5033 -85.5722 356° North 84 97 19,100 800 Climbing Minneapolis Center
Wed 10:04:08 AM 43.5264 -85.5747 North 84 97 19,900 800 Climbing Minneapolis Center
Wed 10:05:08 AM 43.5492 -85.5717 North 84 97 20,700 850 Climbing Minneapolis Center
Wed 10:06:08 AM 43.5722 -85.5714 360° North 84 97 21,600 800 Climbing Minneapolis Center
Wed 10:07:08 AM 43.5953 -85.5714 360° North 84 97 22,300 750 Climbing Minneapolis Center
Wed 10:08:08 AM 43.6161 -85.5714 North 84 97 23,100 750 Climbing Minneapolis Center
Wed 10:09:08 AM 43.6347 -85.5689 359° North 79 91 23,800 600 Climbing Minneapolis Center
Wed 10:10:08 AM 43.6514 -85.5694 357° North 72 83 24,300 550 Climbing Minneapolis Center
Wed 10:11:08 AM 43.6661 -85.5703 358° North 60 69 24,900 318 Climbing Minneapolis Center
Wed 10:12:20 AM 43.6828 -85.5711 North 60 69 25,000 45 Climbing Minneapolis Center
Wed 10:13:20 AM 43.7156 -85.5636 North 80 92 25,000  Level Minneapolis Center
Wed 10:14:21 AM 43.7447 -85.5628 357° North 92 106 25,000  Level Minneapolis Center
Wed 10:15:20 AM 43.7722 -85.5647 North 97 112 25,000  Level Minneapolis Center
Wed 10:16:20 AM 43.8033 -85.5636 355° North 104 120 25,000  Level Minneapolis Center
Wed 10:17:21 AM 43.8369 -85.5675 North 109 125 25,000  Level Minneapolis Center
Wed 10:18:20 AM 43.8767 -85.5650 North 122 140 25,000  Level Minneapolis Center
Wed 10:19:20 AM 43.9139 -85.5631 359° North 127 146 25,000  Level Minneapolis Center
Wed 10:20:20 AM 43.9517 -85.5636 360° North 132 152 25,000  Level Minneapolis Center
Wed 10:21:20 AM 43.9914 -85.5639 North 137 158 25,000  Level Minneapolis Center
Wed 10:22:20 AM 44.0308 -85.5617 357° North 137 158 25,000  Level Minneapolis Center
Wed 10:23:21 AM 44.0728 -85.5644 North 142 163 25,000  Level Minneapolis Center
Wed 10:24:20 AM 44.1039 -85.5603 North 142 163 25,000  Level Minneapolis Center
Wed 10:25:20 AM 44.1433 -85.5578 359° North 142 163 25,000  Level Minneapolis Center
Wed 10:26:20 AM 44.1808 -85.5586 360° North 142 163 25,000  Level Minneapolis Center
Wed 10:27:20 AM 44.2206 -85.5589 North 142 163 25,000  Level Minneapolis Center
Wed 10:28:20 AM 44.2600 -85.5564 North 142 163 25,000  Level Minneapolis Center
Wed 10:29:20 AM 44.2956 -85.5544 360° North 142 163 25,000  Level Minneapolis Center
Wed 10:30:21 AM 44.3353 -85.5547 359° North 142 163 25,000  Level Minneapolis Center
Wed 10:31:21 AM 44.3750 -85.5553 North 142 163 25,000  Level Minneapolis Center
Wed 10:32:21 AM 44.4144 -85.5528 360° North 142 163 25,000  Level Minneapolis Center
Wed 10:33:20 AM 44.4542 -85.5531 North 142 163 25,000  Level Minneapolis Center
Wed 10:34:20 AM 44.4936 -85.5506 359° North 142 163 25,000  Level Minneapolis Center
Wed 10:35:20 AM 44.5311 -85.5511 North 142 163 25,000  Level Minneapolis Center
Wed 10:36:21 AM 44.5686 -85.5489 North 142 163 25,000  Level Minneapolis Center
Wed 10:37:20 AM 44.6061 -85.5467 359° North 142 163 25,000 -7,059 Level Minneapolis Center
Wed 10:38:20 AM 44.6436 -85.5472 North 142 163 11,000  Descending Minneapolis Center
Wed 10:39:21 AM 44.6828 -85.5392 114° Southeast 142 163 25,000 6,942 Climbing Minneapolis Center
Wed 10:40:21 AM 44.6586 -85.4633 203° Southwest 109 125 25,000  Level Minneapolis Center
Wed 10:41:20 AM 44.6025 -85.4975 215° Southwest 116 133 25,000  Level Minneapolis Center
Wed 10:42:21 AM 44.5497 -85.5486 181° South 160 184 25,000  Level Minneapolis Center
Wed 10:43:20 AM 44.4789 -85.5497 181° South 234 269 25,000  Level Minneapolis Center
Wed 10:44:20 AM 44.4081 -85.5506 179° South 239 275 25,000  Level Minneapolis Center
Wed 10:45:20 AM 44.3369 -85.5489 179° South 251 289 25,000  Level Minneapolis Center
Wed 10:46:20 AM 44.2656 -85.5469 180° South 257 296 25,000  Level Minneapolis Center
Wed 10:47:21 AM 44.2008 -85.5469 178° South 251 289 25,000  Level Minneapolis Center
Wed 10:48:21 AM 44.1339 -85.5444 180° South 246 283 25,000  Level Minneapolis Center
Wed 10:49:20 AM 44.0672 -85.5450 176° South 246 283 25,000  Level Minneapolis Center
Wed 10:50:21 AM 44.0022 -85.5394 179° South 241 277 25,000  Level Minneapolis Center
Wed 10:51:21 AM 43.9331 -85.5372 182° South 246 283 25,000  Level Minneapolis Center
Wed 10:52:21 AM 43.8644 -85.5408 181° South 246 283 25,000  Level Minneapolis Center
Wed 10:53:20 AM 43.7933 -85.5417 179° South 252 290 25,000  Level Minneapolis Center
Wed 10:54:20 AM 43.7244 -85.5394 179° South 257 296 25,000  Level Minneapolis Center
Wed 10:55:20 AM 43.6511 -85.5378 179° South 257 296 25,000  Level Minneapolis Center
Wed 10:56:21 AM 43.5800 -85.5361 178° South 257 296 25,000  Level Minneapolis Center
Wed 10:57:05 AM 43.5192 -85.5336 179° South 259 298 25,000  Level Chicago Center
Wed 10:58:05 AM 43.4461 -85.5322 179° South 233 268 25,000  Level Chicago Center
Wed 10:59:05 AM 43.3772 -85.5308 179° South 238 274 25,000  Level Chicago Center
Wed 11:00:05 AM 43.3044 -85.5297 179° South 251 289 25,000  Level Chicago Center
Wed 11:01:05 AM 43.2356 -85.5283 179° South 256 295 25,000  Level Chicago Center
Wed 11:02:05 AM 43.1667 -85.5267 181° South 251 289 25,000  Level Chicago Center
Wed 11:03:05 AM 43.0981 -85.5281 179° South 251 289 25,000  Level Chicago Center
Wed 11:04:05 AM 43.0375 -85.5261 179° South 251 289 25,000  Level Chicago Center
Wed 11:05:04 AM 42.9686 -85.5247 181° South 251 289 25,000  Level Chicago Center
Wed 11:06:05 AM 42.9019 -85.5261 177° South 251 289 25,000  Level Chicago Center
Wed 11:07:05 AM 42.8350 -85.5217 181° South 251 289 25,000  Level Chicago Center
Wed 11:08:04 AM 42.7706 -85.5228 179° South 251 289 25,000  Level Chicago Center
Wed 11:09:05 AM 42.7058 -85.5211 181° South 241 277 25,000  Level Chicago Center
Wed 11:10:05 AM 42.6411 -85.5222 179° South 236 272 25,000  Level Chicago Center
Wed 11:11:05 AM 42.5786 -85.5203 179° South 231 266 25,000  Level Chicago Center
Wed 11:12:05 AM 42.5139 -85.5186 179° South 231 266 25,000  Level Chicago Center
Wed 11:13:05 AM 42.4514 -85.5169 181° South 231 266 25,000  Level Chicago Center
Wed 11:14:05 AM 42.3867 -85.5178 179° South 231 266 25,000  Level Chicago Center
Wed 11:15:05 AM 42.3261 -85.5158 181° South 231 266 25,000  Level Chicago Center
Wed 11:16:05 AM 42.2614 -85.5172 177° South 231 266 25,000  Level Chicago Center
Wed 11:17:05 AM 42.2008 -85.5122 181° South 231 266 25,000  Level Chicago Center
Wed 11:18:05 AM 42.1383 -85.5133 179° South 231 266 25,000  Level Chicago Center
Wed 11:19:04 AM 42.0758 -85.5114 179° South 231 266 25,000  Level Chicago Center
Wed 11:20:05 AM 42.0153 -85.5094 181° South 231 266 25,000  Level Chicago Center
Wed 11:21:05 AM 41.9569 -85.5103 181° South 231 266 25,000  Level Chicago Center
Wed 11:22:05 AM 41.8964 -85.5111 179° South 226 260 25,000  Level Chicago Center
Wed 11:23:05 AM 41.8358 -85.5092 181° South 221 254 25,000  Level Chicago Center
Wed 11:24:05 AM 41.7756 -85.5100 180° South 215 247 25,000  Level Chicago Center
Wed 11:25:05 AM 41.7169 -85.5106 177° South 215 247 25,000  Level Chicago Center
Wed 11:26:05 AM 41.6522 -85.5061 181° South 222 255 25,000  Level Chicago Center
Wed 11:27:05 AM 41.5919 -85.5069 179° South 222 255 25,000  Level Chicago Center
Wed 11:28:05 AM 41.5292 -85.5053 179° South 222 255 25,000  Level Chicago Center
Wed 11:29:05 AM 41.4686 -85.5033 179° South 217 250 25,000  Level Chicago Center
Wed 11:30:05 AM 41.4061 -85.5014 181° South 217 250 25,000  Level Chicago Center
Wed 11:31:05 AM 41.3394 -85.5025 179° South 227 261 25,000  Level Chicago Center
Wed 11:32:05 AM 41.2664 -85.5014 179° South 233 268 25,000  Level Chicago Center
Wed 11:33:05 AM 41.1994 -85.4997 179° South 238 274 25,000 -7,000 Level Chicago Center
Wed 11:34:05 AM 41.1328 -85.4983 179° South 238 274 11,000  Descending Chicago Center
Wed 11:35:05 AM 41.0658 -85.4967 179° South 238 274 25,000 7,000 Climbing Chicago Center
Wed 11:36:05 AM 40.9992 -85.4950 179° South 238 274 25,000  Level Chicago Center
Wed 11:37:05 AM 40.9325 -85.4936 181° South 238 274 25,000  Level Chicago Center
Wed 11:38:05 AM 40.8678 -85.4944 179° South 233 268 25,000  Level Chicago Center
Wed 11:39:05 AM 40.8031 -85.4928 181° South 233 268 25,000  Level Chicago Center
Wed 11:40:05 AM 40.7364 -85.4939 179° South 233 268 25,000 -7,000 Level Chicago Center
Wed 11:41:05 AM 40.6758 -85.4922 179° South 233 268 11,000  Descending Chicago Center
Wed 11:42:05 AM 40.6092 -85.4906 181° South 233 268 25,000 5,957 Climbing Chicago Center
Wed 11:43:26 AM 40.5186 -85.4928 177° South 237 273 25,000  Level Indianapolis Center
Wed 11:44:26 AM 40.4583 -85.4883 181° South 237 273 25,000 -7,000 Level Indianapolis Center
Wed 11:45:26 AM 40.3936 -85.4892 179° South 237 273 11,000 -7,000 Descending Indianapolis Center
Wed 11:46:26 AM 40.3311 -85.4875 165° South 237 273 11,000 7,000 Level Indianapolis Center
Wed 11:47:26 AM 40.2733 -85.4669 187° South 237 273 25,000 7,000 Climbing Indianapolis Center
Wed 11:48:26 AM 40.2125 -85.4761 210° Southwest 237 273 25,000  Level Indianapolis Center
Wed 11:49:26 AM 40.1703 -85.5075 241° Southwest 237 273 25,000  Level Indianapolis Center
Wed 11:50:26 AM 40.1486 -85.5586 280° West 237 273 25,000  Level Indianapolis Center
Wed 11:51:26 AM 40.1542 -85.5994 314° West 237 273 25,000  Level Indianapolis Center
Wed 11:52:26 AM 40.1747 -85.6272 10° North 237 273 25,000  Level Indianapolis Center
Wed 11:53:29 AM 40.2011 -85.6367 18° North 25,000  Level Chicago Center
Wed 11:54:29 AM 40.2406 -85.6317 32° Northeast 25,000  Level Chicago Center
Wed 11:55:29 AM 40.2731 -85.6053 53° Northeast 141 162 25,000  Level Chicago Center
Wed 11:56:29 AM 40.3006 -85.5575 67° East 160 184 25,000  Level Chicago Center
Wed 11:57:29 AM 40.3175 -85.5047 86° East 172 198 25,000  Level Chicago Center
Wed 11:58:29 AM 40.3214 -85.4308 104° East 186 214 25,000  Level Chicago Center
Wed 11:59:29 AM 40.3083 -85.3608 125° Southeast 208 239 25,000  Level Chicago Center
Wed 12:00:29 PM 40.2750 -85.2975 142° Southeast 214 246 25,000  Level Chicago Center
Wed 12:01:29 PM 40.2294 -85.2514 162° South 224 258 25,000  Level Chicago Center
Wed 12:02:29 PM 40.1744 -85.2275 183° South 224 258 25,000  Level Chicago Center
Wed 12:03:29 PM 40.1225 -85.2308 194° South 224 258 25,000  Level Chicago Center
Wed 12:04:29 PM 40.0811 -85.2442 224° Southwest 224 258 25,000  Level Chicago Center
Wed 12:05:29 PM 40.0511 -85.2814 236° Southwest 224 258 25,000  Level Chicago Center
Wed 12:06:29 PM 40.0356 -85.3119 251° West 224 258 25,000  Level Chicago Center
Wed 12:07:29 PM 40.0283 -85.3397 260° West 86 99 25,000  Level Chicago Center
Wed 12:08:29 PM 40.0233 -85.3753 327° Northwest 95 109 25,000  Level Chicago Center
Wed 12:09:29 PM 40.0383 -85.3878 12° North 48 55 25,000  Level Chicago Center
Wed 12:10:29 PM 40.0631 -85.3811 18° North 82 94 25,000  Level Chicago Center
Wed 12:11:29 PM 40.0858 -85.3714 North 95 109 25,000  Level Chicago Center
Wed 12:12:29 PM 40.1086 -85.3675 25° Northeast 90 104 25,000  Level Chicago Center
Wed 12:13:29 PM 40.1289 -85.3553 13° North 78 90 25,000  Level Chicago Center
Wed 12:14:29 PM 40.1517 -85.3486 19° North 78 90 25,000  Level Chicago Center
Wed 12:15:29 PM 40.1722 -85.3392 North 78 90 25,000  Level Chicago Center
Wed 12:16:29 PM 40.1908 -85.3353 29° Northeast 73 84 25,000 -250 Level Chicago Center
Wed 12:17:29 PM 40.2069 -85.3236 23° Northeast 59 68 24,500 -600 Descending Chicago Center
Wed 12:18:29 PM 40.2233 -85.3144 24° Northeast 59 68 23,800 -450 Descending Chicago Center
Wed 12:19:29 PM 40.2336 -85.3083 17° North 54 62 23,600 -250 Descending Chicago Center
Wed 12:20:29 PM 40.2500 -85.3019 23° Northeast 49 56 23,300 -250 Descending Chicago Center
Wed 12:21:29 PM 40.2664 -85.2928 19° North 54 62 23,100 -250 Descending Chicago Center
Wed 12:22:29 PM 40.2808 -85.2864 10° North 47 54 22,800 -300 Descending Chicago Center
Wed 12:23:29 PM 40.2972 -85.2825 29° Northeast 52 60 22,500 -250 Descending Chicago Center
Wed 12:24:29 PM 40.3178 -85.2678 North 69 79 22,300 -150 Descending Chicago Center
Wed 12:25:29 PM 40.3322 -85.2669 27° Northeast 60 69 22,200 -5,557 Descending Chicago Center
Wed 12:26:31 PM 40.3506 -85.2547 23° Northeast 60 69 11,000 -227 Descending Chicago Center
Wed 12:27:41 PM 40.3669 -85.2456 133° Southeast 60 69 21,700  Climbing Chicago Center
Wed 12:28:41 PM 40.3558 -85.2300 135° Southeast 60 69 11,000 -5,350 Descending Chicago Center
Wed 12:29:41 PM 40.3517 -85.2247 138° Southeast 60 69 11,000  Level Chicago Center
Wed 12:30:41 PM 40.3450 -85.2169 137° Southeast 60 69 11,000  Level Chicago Center
Wed 12:31:41 PM 40.3386 -85.2092 137° Southeast 60 69 11,000  Level Chicago Center

Login

Don't have an account? Register now (free) for customized features, flight alerts, and more!